Time;durP1;ratioP1;P1;durP2;ratioP2;P2;SDS_P1;SDS_P2;PMS_P1;PMS_P2;Temp;Humidity;BMP_temperature;BMP_pressure;BME280_temperature;BME280_humidity;BME280_pressure;Samples;Min_cycle;Max_cycle;Signal;HPM_P1;HPM_P2
2022/09/02 00:00:45;;;;;;;7.20;1.17;;;;;;;14.75;67.76;101704.28;4967454;28;20257;-71
2022/09/02 00:03:11;;;;;;;4.68;1.13;;;;;;;14.70;68.01;101698.34;4967608;28;20081;-72
2022/09/02 00:05:36;;;;;;;2.50;1.23;;;;;;;14.56;69.18;101703.81;4971428;28;20496;-72
2022/09/02 00:08:04;;;;;;;2.13;0.88;;;;;;;14.57;68.95;101708.22;4968610;28;20365;-72
2022/09/02 00:10:29;;;;;;;1.80;1.00;;;;;;;14.53;69.01;101708.50;4971820;28;20902;-72
2022/09/02 00:12:55;;;;;;;2.33;1.02;;;;;;;14.47;69.29;101709.75;4968587;28;20043;-72
2022/09/02 00:15:20;;;;;;;2.80;1.10;;;;;;;14.46;69.58;101700.84;4968581;28;20066;-72
2022/09/02 00:17:46;;;;;;;3.92;1.20;;;;;;;14.43;69.51;101695.66;4968536;28;20096;-72
2022/09/02 00:20:12;;;;;;;1.15;1.05;;;;;;;14.36;69.86;101696.19;4968092;28;20046;-72
2022/09/02 00:22:38;;;;;;;1.38;1.13;;;;;;;14.28;70.23;101696.66;4968108;28;20039;-71
2022/09/02 00:25:04;;;;;;;2.30;1.00;;;;;;;14.22;70.39;101695.25;4968279;28;20053;-72
2022/09/02 00:27:30;;;;;;;1.33;1.10;;;;;;;14.18;71.10;101687.50;4962969;28;20038;-73
2022/09/02 00:29:55;;;;;;;2.28;1.15;;;;;;;14.15;71.05;101693.03;4963601;28;20106;-72
2022/09/02 00:32:21;;;;;;;3.13;1.10;;;;;;;14.12;71.18;101694.13;4963605;28;20049;-71
2022/09/02 00:34:47;;;;;;;3.92;1.20;;;;;;;14.18;70.47;101692.84;4967904;28;20042;-72
2022/09/02 00:37:13;;;;;;;2.72;1.08;;;;;;;14.05;71.39;101687.41;4969770;28;20034;-72
2022/09/02 00:39:39;;;;;;;1.27;0.93;;;;;;;14.09;71.03;101688.09;4964533;28;20073;-72
2022/09/02 00:42:05;;;;;;;2.00;1.08;;;;;;;14.06;71.81;101683.78;4965858;28;20399;-72
2022/09/02 00:44:32;;;;;;;2.20;1.25;;;;;;;14.06;71.52;101688.28;4965587;28;20042;-71
2022/09/02 00:46:58;;;;;;;1.83;1.13;;;;;;;14.09;71.19;101688.94;4964036;28;20188;-72
2022/09/02 00:49:33;;;;;;;1.10;1.00;;;;;;;13.97;71.75;101684.38;4965850;28;20181;-71
2022/09/02 00:52:11;;;;;;;2.17;1.30;;;;;;;14.02;71.76;101687.63;4963712;28;20038;-72
2022/09/02 00:54:42;;;;;;;4.78;1.42;;;;;;;14.05;71.83;101676.69;4965084;28;20046;-72
2022/09/02 00:57:12;;;;;;;4.70;1.10;;;;;;;14.04;71.52;101677.66;4965288;28;20046;-72
2022/09/02 01:00:00;;;;;;;1.60;1.48;;;;;;;13.91;72.63;101671.38;4965513;28;20105;-72
2022/09/02 01:02:27;;;;;;;4.22;1.08;;;;;;;13.81;73.03;101678.28;4960526;28;20086;-72
2022/09/02 01:04:55;;;;;;;5.75;1.42;;;;;;;13.86;72.92;101668.13;4965042;28;20139;-72
2022/09/02 01:07:22;;;;;;;5.25;1.30;;;;;;;13.90;72.49;101669.63;4965197;28;20062;-71
2022/09/02 01:09:48;;;;;;;2.40;1.50;;;;;;;13.91;73.05;101672.22;4965271;28;20039;-72
2022/09/02 01:12:15;;;;;;;3.95;2.00;;;;;;;13.89;73.30;101670.59;4963542;28;20043;-72
2022/09/02 01:14:41;;;;;;;2.17;1.27;;;;;;;13.94;72.71;101672.00;4965247;28;20109;-71
2022/09/02 01:17:07;;;;;;;1.95;1.30;;;;;;;13.90;72.99;101669.63;4965469;28;20043;-72
2022/09/02 01:19:37;;;;;;;3.85;1.40;;;;;;;13.93;72.63;101666.75;4965388;28;20058;-72
2022/09/02 01:22:15;;;;;;;3.17;1.35;;;;;;;13.94;72.76;101668.47;4957281;28;20038;-71
2022/09/02 01:24:40;;;;;;;7.78;1.50;;;;;;;13.91;72.85;101677.59;4965530;28;20050;-71
2022/09/02 01:27:06;;;;;;;1.48;1.38;;;;;;;13.87;73.77;101675.19;4963640;28;20042;-72
2022/09/02 01:29:31;;;;;;;3.67;1.20;;;;;;;13.95;72.70;101675.56;4969960;28;20094;-72
2022/09/02 01:31:57;;;;;;;1.65;1.40;;;;;;;13.98;72.52;101667.31;4965307;28;20067;-72
2022/09/02 01:34:23;;;;;;;3.22;1.70;;;;;;;13.92;73.04;101667.72;4963644;28;20129;-72
2022/09/02 01:36:48;;;;;;;1.40;1.30;;;;;;;13.90;73.64;101669.63;4965008;28;20062;-71
2022/09/02 01:39:14;;;;;;;3.33;1.40;;;;;;;13.92;73.36;101662.38;4964979;28;20042;-72
2022/09/02 01:41:39;;;;;;;2.42;1.42;;;;;;;13.88;73.64;101661.69;4965134;28;20049;-72
2022/09/02 01:44:06;;;;;;;3.53;1.20;;;;;;;13.89;73.41;101662.53;4963365;28;20039;-72
2022/09/02 01:46:33;;;;;;;8.35;1.15;;;;;;;13.92;73.03;101654.31;4965172;28;20705;-72
2022/09/02 01:48:59;;;;;;;2.38;1.38;;;;;;;13.84;74.62;101657.47;4963295;28;20467;-72
2022/09/02 01:51:26;;;;;;;1.85;1.23;;;;;;;13.92;73.91;101657.84;4963285;28;20583;-73
2022/09/02 01:53:51;;;;;;;1.65;1.20;;;;;;;13.85;74.22;101653.81;4963432;28;20045;-71
2022/09/02 01:56:17;;;;;;;2.30;1.30;;;;;;;13.94;72.89;101658.59;4963612;28;20476;-71
2022/09/02 01:58:42;;;;;;;2.20;1.25;;;;;;;13.85;74.26;101653.81;4964675;28;20045;-72
2022/09/02 02:01:10;;;;;;;1.90;1.25;;;;;;;13.88;73.43;101655.47;4962968;28;20081;-71
2022/09/02 02:03:37;;;;;;;5.55;1.13;;;;;;;13.89;73.93;101651.81;4976926;23;20054;-69
2022/09/02 02:06:11;;;;;;;6.18;1.50;;;;;;;13.91;73.87;101652.59;4952405;28;20081;-68
2022/09/02 02:08:38;;;;;;;4.18;1.10;;;;;;;13.82;75.83;101651.38;4970488;28;20177;-69
2022/09/02 02:11:04;;;;;;;2.55;1.20;;;;;;;13.76;75.37;101649.09;4952253;28;20554;-68
2022/09/02 02:13:31;;;;;;;2.00;1.25;;;;;;;13.93;74.72;101654.22;4952572;28;20068;-68
2022/09/02 02:15:57;;;;;;;3.55;1.20;;;;;;;13.67;74.75;101655.88;4951998;28;20038;-69
2022/09/02 02:18:22;;;;;;;1.60;1.45;;;;;;;13.65;74.82;101656.91;4951633;28;20035;-68
2022/09/02 02:20:48;;;;;;;5.00;1.20;;;;;;;13.67;75.94;101646.97;4952640;28;20037;-68
2022/09/02 02:23:13;;;;;;;1.50;1.35;;;;;;;13.66;75.19;101637.22;4969420;28;20045;-69
2022/09/02 02:25:39;;;;;;;2.10;1.17;;;;;;;13.71;74.00;101641.34;4969229;28;20543;-69
2022/09/02 02:28:04;;;;;;;3.47;1.42;;;;;;;13.74;73.85;101646.47;4968909;28;20612;-69
2022/09/02 02:30:31;;;;;;;1.50;1.15;;;;;;;13.73;74.24;101646.59;4951144;28;20030;-69
2022/09/02 02:32:57;;;;;;;2.17;1.30;;;;;;;13.76;74.07;101638.34;4968812;28;20049;-69
2022/09/02 02:35:24;;;;;;;1.88;1.35;;;;;;;13.80;73.69;101639.00;4949960;28;20107;-69
2022/09/02 02:37:51;;;;;;;5.47;1.20;;;;;;;13.79;73.36;101643.50;4951231;28;20046;-69
2022/09/02 02:40:19;;;;;;;1.45;1.35;;;;;;;13.66;73.97;101635.41;4935450;28;20144;-69
2022/09/02 02:42:46;;;;;;;2.97;1.40;;;;;;;13.78;73.31;101640.94;4951336;28;20030;-69
2022/09/02 02:45:13;;;;;;;4.47;1.52;;;;;;;13.82;72.97;101642.47;4953017;28;20042;-69
2022/09/02 02:47:41;;;;;;;3.08;1.38;;;;;;;13.78;73.40;101639.09;4952751;28;20132;-69
2022/09/02 02:50:09;;;;;;;2.72;1.42;;;;;;;13.88;72.86;101644.75;4935884;28;20049;-69
2022/09/02 02:52:35;;;;;;;4.85;1.30;;;;;;;13.83;74.06;101645.03;4952569;28;20416;-69
2022/09/02 02:55:01;;;;;;;3.33;1.30;;;;;;;13.74;74.95;101641.13;4970382;28;20046;-69
2022/09/02 02:57:26;;;;;;;4.70;1.40;;;;;;;13.71;74.47;101641.34;4969598;28;20097;-69
2022/09/02 02:59:52;;;;;;;3.33;1.17;;;;;;;13.73;74.99;101638.53;4969775;28;20041;-69
2022/09/02 03:02:17;;;;;;;3.65;1.75;;;;;;;13.90;73.39;101640.13;4952583;28;20053;-69
2022/09/02 03:04:43;;;;;;;2.33;1.30;;;;;;;13.96;72.85;101640.63;4952883;28;20030;-69
2022/09/02 03:07:09;;;;;;;3.88;1.27;;;;;;;13.66;78.47;101634.53;4952084;28;20057;-69
2022/09/02 03:09:34;;;;;;;2.13;1.35;;;;;;;13.84;75.96;101635.16;4970176;28;20046;-69
2022/09/02 03:12:01;;;;;;;3.33;1.55;;;;;;;13.77;75.84;101636.53;4952162;28;20851;-69
2022/09/02 03:14:27;;;;;;;2.00;1.42;;;;;;;13.77;75.75;101636.53;4952281;28;20077;-69
2022/09/02 03:16:52;;;;;;;2.50;1.77;;;;;;;13.69;76.77;101629.81;4970389;28;20118;-69
2022/09/02 03:19:18;;;;;;;1.67;1.20;;;;;;;13.62;78.98;101635.69;4970569;28;20042;-69
2022/09/02 03:21:43;;;;;;;2.25;1.70;;;;;;;13.50;81.16;101639.97;4952558;28;20363;-69
2022/09/02 03:24:11;;;;;;;3.13;1.48;;;;;;;13.54;78.05;101646.03;4952394;28;20038;-69
2022/09/02 03:26:40;;;;;;;2.38;1.40;;;;;;;13.59;77.63;101642.09;4952506;28;20077;-69
2022/09/02 03:29:05;;;;;;;1.75;1.45;;;;;;;13.65;76.88;101630.13;4951979;28;20052;-69
2022/09/02 03:31:31;;;;;;;4.05;1.23;;;;;;;13.60;78.40;101633.09;4952199;28;20034;-69
2022/09/02 03:33:58;;;;;;;4.15;1.75;;;;;;;13.43;79.54;101644.03;4952314;28;20058;-69
2022/09/02 03:36:31;;;;;;;8.63;1.75;;;;;;;13.57;78.31;101640.47;4969842;28;20074;-69
2022/09/02 03:38:58;;;;;;;3.25;1.67;;;;;;;13.60;78.11;101626.88;4951985;28;20097;-69
2022/09/02 03:41:23;;;;;;;4.55;1.65;;;;;;;13.64;80.50;101623.91;4951415;28;20427;-68
2022/09/02 03:43:49;;;;;;;5.05;1.65;;;;;;;13.66;78.06;101622.00;4951980;28;20098;-68
2022/09/02 03:46:15;;;;;;;2.30;1.60;;;;;;;13.65;79.93;101622.06;4952361;28;20042;-68
2022/09/02 03:48:41;;;;;;;2.05;1.80;;;;;;;13.55;81.09;101618.25;4953131;28;20760;-68
2022/09/02 03:51:09;;;;;;;4.88;1.58;;;;;;;13.59;78.58;101612.59;4952987;28;20034;-68
2022/09/02 03:53:35;;;;;;;6.72;2.33;;;;;;;13.57;81.21;101614.53;4952764;28;20152;-68
2022/09/02 03:56:10;;;;;;;2.17;1.50;;;;;;;13.59;79.89;101615.28;4952556;28;20035;-69
2022/09/02 03:58:37;;;;;;;3.55;1.58;;;;;;;13.54;79.00;101620.09;4952279;28;20042;-68
2022/09/02 04:01:03;;;;;;;4.20;1.30;;;;;;;13.68;77.69;101606.66;4954107;28;20140;-68
2022/09/02 04:03:29;;;;;;;4.07;1.40;;;;;;;13.40;80.11;101618.31;4956969;28;20046;-68
2022/09/02 04:05:55;;;;;;;1.55;1.17;;;;;;;13.41;78.88;101605.75;4956019;28;20033;-69
2022/09/02 04:08:23;;;;;;;7.97;1.98;;;;;;;13.53;77.42;101602.28;4940661;28;20105;-68
2022/09/02 04:10:50;;;;;;;4.72;1.42;;;;;;;13.46;77.69;101612.53;4956474;28;20038;-68
2022/09/02 04:13:16;;;;;;;5.10;1.70;;;;;;;13.46;77.41;101604.50;4954948;28;20093;-68
2022/09/02 04:15:46;;;;;;;1.98;1.48;;;;;;;13.35;79.55;101615.00;4956155;28;20053;-68
2022/09/02 04:18:14;;;;;;;1.90;1.45;;;;;;;13.24;81.27;101617.50;4955835;28;20038;-68
2022/09/02 04:20:42;;;;;;;3.25;1.75;;;;;;;13.21;82.00;101610.53;4956359;28;20046;-68
2022/09/02 04:23:07;;;;;;;6.45;1.52;;;;;;;13.20;82.74;101614.16;4973039;28;20040;-68
2022/09/02 04:25:41;;;;;;;4.25;1.60;;;;;;;13.23;82.84;101613.13;4955316;28;20169;-68
2022/09/02 04:28:07;;;;;;;3.75;1.40;;;;;;;13.12;82.50;101608.41;4954487;28;20038;-68
2022/09/02 04:30:33;;;;;;;2.50;1.17;;;;;;;13.13;83.14;101603.91;4973491;28;20049;-68
2022/09/02 04:32:59;;;;;;;3.70;1.75;;;;;;;13.10;82.87;101601.41;4955593;28;20037;-70
2022/09/02 04:35:24;;;;;;;4.82;1.63;;;;;;;12.94;84.10;101602.34;4955918;28;20041;-68
2022/09/02 04:37:50;;;;;;;2.15;1.33;;;;;;;12.96;83.78;101596.91;4955738;28;20049;-68
2022/09/02 04:40:16;;;;;;;1.60;1.50;;;;;;;13.04;82.06;101605.31;4954222;28;20034;-68
2022/09/02 04:42:42;;;;;;;1.40;1.30;;;;;;;13.03;84.01;101603.59;4954710;28;20038;-69
2022/09/02 04:45:08;;;;;;;2.50;1.50;;;;;;;13.06;82.29;101607.91;4954706;28;20103;-68
2022/09/02 04:47:35;;;;;;;4.57;1.55;;;;;;;13.03;82.99;101602.75;4954594;28;20216;-68
2022/09/02 04:50:02;;;;;;;2.25;1.60;;;;;;;13.01;83.71;101610.03;4954616;28;20042;-69
2022/09/02 04:52:30;;;;;;;5.68;1.50;;;;;;;13.18;81.59;101601.78;4955067;28;20042;-69
2022/09/02 04:54:55;;;;;;;3.17;1.38;;;;;;;13.27;79.79;101603.06;4972231;28;20112;-69
2022/09/02 04:57:21;;;;;;;2.80;1.88;;;;;;;13.36;79.15;101597.16;4954415;28;20061;-69
2022/09/02 04:59:48;;;;;;;2.83;1.63;;;;;;;13.35;82.49;101606.13;4954916;28;20030;-70
2022/09/02 05:02:14;;;;;;;5.28;2.55;;;;;;;13.31;84.48;101604.63;4971879;28;20049;-68
2022/09/02 05:04:39;;;;;;;6.22;1.70;;;;;;;13.42;81.14;101600.28;4955626;28;20081;-69
2022/09/02 05:07:11;;;;;;;5.20;1.53;;;;;;;13.56;77.56;101591.38;4939669;28;20946;-68
2022/09/02 05:09:41;;;;;;;5.22;1.83;;;;;;;13.54;77.98;101595.97;4954854;28;20034;-68
2022/09/02 05:12:08;;;;;;;2.47;1.60;;;;;;;13.68;76.47;101593.25;4953272;28;20034;-68
2022/09/02 05:14:47;;;;;;;2.38;1.40;;;;;;;13.71;77.24;101592.22;4953721;28;20041;-69
2022/09/02 05:17:14;;;;;;;11.20;1.90;;;;;;;13.73;76.67;101601.88;4953913;28;20883;-69
2022/09/02 05:19:43;;;;;;;2.38;1.77;;;;;;;13.69;77.18;101594.97;4953683;28;20122;-68
2022/09/02 05:22:09;;;;;;;6.40;1.85;;;;;;;13.84;75.73;101598.50;4953307;28;20555;-69
2022/09/02 05:24:37;;;;;;;3.65;2.28;;;;;;;13.84;75.51;101593.13;4953796;28;20039;-68
2022/09/02 05:27:07;;;;;;;3.30;1.95;;;;;;;13.91;75.11;101599.84;4953452;28;20060;-69
2022/09/02 05:29:34;;;;;;;3.38;1.80;;;;;;;13.92;75.63;101598.88;4953883;28;20038;-68
2022/09/02 05:32:00;;;;;;;6.90;1.77;;;;;;;13.94;76.90;101590.72;4954125;28;20073;-68
2022/09/02 05:34:25;;;;;;;4.18;2.35;;;;;;;14.16;74.93;101596.41;4954333;28;20043;-69
2022/09/02 05:36:54;;;;;;;21.10;3.67;;;;;;;14.32;74.22;101590.88;4954203;28;20097;-69
2022/09/02 05:39:20;;;;;;;7.95;2.10;;;;;;;14.37;73.95;101594.09;4953312;28;20751;-69
2022/09/02 05:41:47;;;;;;;3.65;2.03;;;;;;;14.46;73.12;101589.94;4953784;28;20042;-68
2022/09/02 05:44:12;;;;;;;5.35;1.88;;;;;;;14.62;72.47;101587.09;4953943;28;20424;-69
2022/09/02 05:46:38;;;;;;;4.47;1.60;;;;;;;14.64;72.82;101588.69;4937614;28;20124;-69
2022/09/02 05:49:05;;;;;;;4.78;1.83;;;;;;;14.57;73.40;101591.94;4971905;28;20037;-68
2022/09/02 05:51:36;;;;;;;5.32;1.48;;;;;;;14.64;73.42;101593.22;4971817;28;20478;-69
2022/09/02 05:54:02;;;;;;;4.40;1.75;;;;;;;14.71;72.54;101594.53;4952747;28;20131;-69
2022/09/02 05:56:27;;;;;;;4.03;1.80;;;;;;;14.72;72.90;101594.41;4953451;28;20042;-68
2022/09/02 05:58:57;;;;;;;2.85;1.48;;;;;;;14.68;72.94;101598.28;4953227;28;20057;-68
2022/09/02 06:01:25;;;;;;;4.90;1.60;;;;;;;14.85;71.74;101593.56;4953533;28;20038;-68
2022/09/02 06:03:51;;;;;;;3.47;1.70;;;;;;;14.80;73.54;101591.19;4953853;28;20038;-69
2022/09/02 06:06:17;;;;;;;2.08;1.38;;;;;;;14.90;74.76;101592.25;4970737;28;20034;-69
2022/09/02 06:08:43;;;;;;;5.57;1.50;;;;;;;15.08;72.12;101586.59;4953754;28;20045;-68
2022/09/02 06:11:11;;;;;;;2.50;1.30;;;;;;;15.20;72.28;101594.63;4953691;28;20042;-69
2022/09/02 06:13:40;;;;;;;5.47;2.10;;;;;;;15.38;73.14;101586.25;4953201;28;20924;-68
2022/09/02 06:16:09;;;;;;;4.70;1.33;;;;;;;15.72;71.22;101582.88;4952697;28;20050;-68
2022/09/02 06:18:36;;;;;;;1.58;1.05;;;;;;;15.79;75.82;101578.75;4952890;28;20038;-68
2022/09/02 06:21:03;;;;;;;3.80;1.70;;;;;;;15.92;70.03;101580.53;4970097;28;20045;-68
2022/09/02 06:23:37;;;;;;;3.38;1.30;;;;;;;16.09;71.35;101581.97;4924260;28;20177;-68
2022/09/02 06:26:03;;;;;;;3.67;1.35;;;;;;;16.38;69.57;101588.72;4969972;28;20559;-69
2022/09/02 06:28:29;;;;;;;9.00;1.40;;;;;;;16.54;67.63;101589.25;4952682;28;20110;-68
2022/09/02 06:30:56;;;;;;;18.40;3.13;;;;;;;16.42;68.26;101586.66;4969093;28;20038;-69
2022/09/02 06:33:23;;;;;;;4.95;1.80;;;;;;;16.74;66.97;101582.38;4951687;28;20038;-69
2022/09/02 06:35:49;;;;;;;6.68;1.73;;;;;;;16.69;66.05;101586.38;4952521;28;20042;-69
2022/09/02 06:38:18;;;;;;;12.77;2.50;;;;;;;16.58;66.43;101581.81;4951937;28;20786;-69
2022/09/02 06:40:53;;;;;;;2.25;1.20;;;;;;;16.33;65.75;101584.66;4952498;28;20126;-68
2022/09/02 06:43:30;;;;;;;3.05;1.10;;;;;;;16.28;65.94;101591.25;4952120;28;20034;-69
2022/09/02 06:46:06;;;;;;;6.47;1.20;;;;;;;16.35;65.92;101588.06;4952149;28;20049;-69
2022/09/02 06:48:34;;;;;;;9.55;1.60;;;;;;;16.28;66.33;101590.38;4952315;28;20042;-68
2022/09/02 06:51:00;;;;;;;2.47;1.25;;;;;;;16.47;64.58;101592.56;4952001;28;20045;-68
2022/09/02 06:53:26;;;;;;;8.02;1.95;;;;;;;16.86;63.77;101579.69;4951750;28;20963;-69
2022/09/02 06:55:52;;;;;;;3.63;0.98;;;;;;;16.82;62.83;101576.41;4951998;28;20133;-69
2022/09/02 06:58:18;;;;;;;7.82;2.05;;;;;;;16.78;64.89;101583.00;4969577;28;20053;-69
2022/09/02 07:00:44;;;;;;;8.65;2.53;;;;;;;16.97;63.91;101577.03;4969404;28;20039;-69
2022/09/02 07:06:10;;;;;;;5.95;1.65;;;;;;;16.81;62.36;101574.66;4950518;28;20045;-69
2022/09/02 07:08:41;;;;;;;3.40;1.30;;;;;;;16.96;62.23;101576.16;4952221;28;20069;-69
2022/09/02 07:11:18;;;;;;;3.95;1.50;;;;;;;17.08;65.20;101577.03;4950971;28;20184;-69
2022/09/02 07:13:44;;;;;;;7.40;1.60;;;;;;;16.98;63.72;101576.91;4969975;28;20053;-69
2022/09/02 07:16:10;;;;;;;6.57;1.52;;;;;;;17.11;64.20;101578.63;4938540;28;20412;-69
2022/09/02 07:18:36;;;;;;;7.43;1.60;;;;;;;17.15;65.40;101572.00;4951787;28;20052;-69
2022/09/02 07:21:02;;;;;;;4.32;1.42;;;;;;;17.14;62.96;101573.00;4950712;28;20038;-69
2022/09/02 07:23:28;;;;;;;5.75;1.10;;;;;;;17.22;62.40;101567.84;4951754;28;20034;-69
2022/09/02 07:25:54;;;;;;;2.40;1.20;;;;;;;17.28;61.71;101570.06;4951414;28;20473;-68
2022/09/02 07:28:21;;;;;;;5.05;1.70;;;;;;;17.04;62.68;101567.47;4951851;28;20031;-68
2022/09/02 07:30:47;;;;;;;4.00;1.40;;;;;;;17.01;63.10;101568.56;4952424;28;20174;-68
2022/09/02 07:33:16;;;;;;;1.65;0.90;;;;;;;17.06;63.13;101573.59;4952387;28;20034;-68
2022/09/02 07:35:44;;;;;;;7.70;1.52;;;;;;;17.15;62.64;101566.63;4953975;28;20057;-68
2022/09/02 07:38:10;;;;;;;4.93;1.58;;;;;;;17.24;61.94;101561.34;4956629;28;20854;-69
2022/09/02 07:40:39;;;;;;;9.80;1.20;;;;;;;17.21;63.39;101571.50;4956922;28;20034;-68
2022/09/02 07:43:08;;;;;;;3.25;1.30;;;;;;;17.42;61.53;101558.16;4957450;28;20498;-68
2022/09/02 07:45:36;;;;;;;3.97;1.30;;;;;;;17.51;61.54;101562.81;4957152;28;20121;-69
2022/09/02 07:48:06;;;;;;;3.92;1.15;;;;;;;17.65;61.83;101556.28;4956791;28;20620;-68
2022/09/02 07:50:36;;;;;;;12.63;1.80;;;;;;;18.54;58.63;101552.44;4956858;28;20046;-69
2022/09/02 07:53:06;;;;;;;6.93;1.45;;;;;;;19.52;57.27;101551.94;4957430;28;20469;-68
2022/09/02 07:55:35;;;;;;;4.10;1.55;;;;;;;19.99;54.22;101544.97;4958407;28;20156;-69
2022/09/02 07:58:03;;;;;;;3.80;1.52;;;;;;;20.13;55.79;101546.38;4958025;28;20046;-69
2022/09/02 08:00:29;;;;;;;5.32;1.20;;;;;;;20.12;53.53;101539.25;4957713;28;20064;-68
2022/09/02 08:03:00;;;;;;;7.18;1.40;;;;;;;20.72;52.76;101541.81;4953327;28;20039;-69
2022/09/02 08:05:31;;;;;;;2.03;0.95;;;;;;;20.85;51.94;101543.22;4953061;28;20043;-69
2022/09/02 08:07:58;;;;;;;5.25;1.30;;;;;;;21.34;50.41;101534.94;4954281;28;20114;-69
2022/09/02 08:10:26;;;;;;;12.00;1.50;;;;;;;20.95;51.32;101544.03;4954855;28;20050;-69
2022/09/02 08:12:51;;;;;;;8.15;1.10;;;;;;;20.76;50.93;101543.22;4954869;28;20133;-68
2022/09/02 08:15:19;;;;;;;5.72;1.30;;;;;;;20.46;51.22;101541.53;4955537;28;20042;-68
2022/09/02 08:17:46;;;;;;;4.90;1.10;;;;;;;21.31;51.76;101541.50;4955102;28;20122;-68
2022/09/02 08:20:12;;;;;;;6.32;1.35;;;;;;;20.79;51.09;101535.66;4955618;28;20039;-69
2022/09/02 08:22:37;;;;;;;4.15;1.50;;;;;;;20.93;50.94;101540.63;4953947;28;20039;-69
2022/09/02 08:25:03;;;;;;;8.23;2.20;;;;;;;21.16;52.01;101532.97;4954532;28;20948;-69
2022/09/02 08:27:29;;;;;;;1.92;1.60;;;;;;;21.13;50.29;101535.97;4955274;28;20077;-69
2022/09/02 08:29:55;;;;;;;3.15;1.27;;;;;;;21.26;50.01;101523.94;4955665;28;20073;-70
2022/09/02 08:32:20;;;;;;;4.15;1.27;;;;;;;20.94;51.05;101528.78;4955775;28;20126;-68
2022/09/02 08:34:46;;;;;;;5.90;1.10;;;;;;;20.94;51.39;101530.63;4955079;28;20073;-69
2022/09/02 08:37:12;;;;;;;4.47;1.27;;;;;;;20.84;51.57;101529.81;4955666;28;20114;-69
2022/09/02 08:39:37;;;;;;;5.82;1.70;;;;;;;21.06;51.60;101528.59;4955015;28;20051;-69
2022/09/02 08:42:28;;;;;;;4.97;1.60;;;;;;;21.51;52.21;101522.41;4954114;28;20038;-69
2022/09/02 08:44:59;;;;;;;4.38;1.60;;;;;;;21.30;51.45;101520.81;4953889;28;20059;-69
2022/09/02 08:47:29;;;;;;;3.13;1.20;;;;;;;21.05;51.13;101526.88;4953391;28;20170;-68
2022/09/02 08:49:58;;;;;;;5.75;1.70;;;;;;;21.32;50.34;101518.78;4955240;28;20140;-68
2022/09/02 08:52:38;;;;;;;3.30;2.05;;;;;;;21.33;51.83;101522.34;4953793;28;20047;-68
2022/09/02 08:55:06;;;;;;;4.00;1.48;;;;;;;21.62;50.84;101516.75;4953953;28;20047;-68
2022/09/02 08:57:32;;;;;;;3.45;1.73;;;;;;;21.69;50.25;101520.59;4954101;28;20603;-68
2022/09/02 08:59:59;;;;;;;4.95;2.03;;;;;;;21.66;51.13;101519.03;4953373;28;20039;-68
2022/09/02 09:02:41;;;;;;;8.27;1.38;;;;;;;21.83;52.16;101516.47;4958803;28;20039;-68
2022/09/02 09:05:32;;;;;;;5.55;1.98;;;;;;;21.78;49.72;101514.22;4972210;28;20043;-68
2022/09/02 09:08:10;;;;;;;11.43;2.08;;;;;;;22.08;51.52;101504.81;4975252;28;20038;-68
2022/09/02 09:11:00;;;;;;;5.07;1.58;;;;;;;22.09;48.96;101511.13;4965366;28;20085;-69
2022/09/02 09:13:38;;;;;;;9.82;2.17;;;;;;;21.96;51.76;101509.66;4965395;28;20100;-69
2022/09/02 09:16:07;;;;;;;11.98;1.95;;;;;;;22.17;50.75;101500.34;4972854;28;20538;-69
2022/09/02 09:18:47;;;;;;;5.32;1.40;;;;;;;22.26;49.88;101495.84;4973695;28;20424;-69
2022/09/02 09:21:13;;;;;;;7.07;1.67;;;;;;;22.55;50.06;101499.16;4972292;28;20049;-68
2022/09/02 09:23:39;;;;;;;6.28;1.70;;;;;;;22.64;50.74;101495.47;4970262;28;20035;-69
2022/09/02 09:26:15;;;;;;;3.30;1.88;;;;;;;22.78;49.04;101493.16;4953202;28;20042;-69
2022/09/02 09:28:46;;;;;;;8.82;2.20;;;;;;;22.80;49.36;101488.44;4966196;28;20038;-69
2022/09/02 09:31:28;;;;;;;5.37;1.83;;;;;;;22.71;49.75;101493.81;4969905;28;20039;-68
2022/09/02 09:34:10;;;;;;;3.28;2.00;;;;;;;22.22;49.80;101484.44;4971379;28;20049;-69
2022/09/02 09:36:54;;;;;;;6.20;1.98;;;;;;;22.51;51.00;101486.88;4970718;28;20026;-69
2022/09/02 09:39:22;;;;;;;5.72;1.95;;;;;;;22.80;50.24;101481.13;4970593;28;20118;-69
2022/09/02 09:41:48;;;;;;;3.88;2.17;;;;;;;23.16;49.76;101483.69;4969589;28;20514;-70
2022/09/02 09:44:37;;;;;;;5.03;2.22;;;;;;;22.79;49.40;101482.09;4969312;28;20042;-68
2022/09/02 09:47:18;;;;;;;4.05;2.47;;;;;;;23.16;49.88;101475.53;4969058;28;20129;-69
2022/09/02 09:49:44;;;;;;;7.28;2.20;;;;;;;23.17;49.73;101477.25;4969349;28;20049;-69
2022/09/02 09:52:10;;;;;;;8.43;2.20;;;;;;;23.36;49.52;101470.69;4969351;28;20026;-69
2022/09/02 09:54:35;;;;;;;7.45;1.80;;;;;;;23.94;49.10;101467.91;4969058;28;20038;-69
2022/09/02 09:57:18;;;;;;;5.93;2.10;;;;;;;24.04;48.14;101468.59;4968421;28;20046;-69
2022/09/02 09:59:48;;;;;;;3.15;2.00;;;;;;;23.10;48.24;101468.88;4968291;28;20034;-69
2022/09/02 10:02:20;;;;;;;6.85;2.10;;;;;;;23.52;47.22;101463.41;4968395;28;20094;-69
2022/09/02 10:04:47;;;;;;;5.32;2.13;;;;;;;24.22;49.73;101457.53;4960177;28;20038;-69
2022/09/02 10:07:13;;;;;;;5.63;2.45;;;;;;;23.73;48.15;101457.50;4968919;28;20040;-69
2022/09/02 10:09:39;;;;;;;6.80;2.05;;;;;;;23.74;47.92;101461.09;4968867;28;20573;-68
2022/09/02 10:12:07;;;;;;;4.63;2.30;;;;;;;23.76;48.03;101457.19;4969324;28;20038;-69
2022/09/02 10:14:40;;;;;;;5.18;2.28;;;;;;;23.71;48.32;101456.00;4969092;28;20161;-69
2022/09/02 10:17:05;;;;;;;3.72;2.15;;;;;;;23.54;47.64;101455.06;4950163;28;20153;-69
2022/09/02 10:19:35;;;;;;;5.22;2.30;;;;;;;24.14;48.40;101453.94;4968749;28;20076;-69
2022/09/02 10:22:31;;;;;;;6.93;2.08;;;;;;;24.66;48.91;101453.59;4968376;28;20045;-68
2022/09/02 10:25:22;;;;;;;6.85;1.80;;;;;;;25.03;46.79;101451.06;4950729;28;20053;-69
2022/09/02 10:27:51;;;;;;;5.78;1.92;;;;;;;25.03;46.34;101444.75;4945002;28;20042;-69
2022/09/02 10:30:23;;;;;;;6.72;2.10;;;;;;;25.34;45.38;101436.59;4963799;28;20030;-69
2022/09/02 10:33:15;;;;;;;1.58;1.42;;;;;;;25.03;45.91;101436.56;4949586;28;20105;-69
2022/09/02 10:35:55;;;;;;;6.65;1.92;;;;;;;24.86;46.07;101435.78;4964312;28;20053;-69
2022/09/02 10:38:34;;;;;;;6.63;2.13;;;;;;;25.10;45.71;101431.25;4967074;28;20043;-68
2022/09/02 10:41:18;;;;;;;5.03;2.38;;;;;;;24.98;47.59;101430.78;4968259;28;20053;-68
2022/09/02 10:43:59;;;;;;;12.02;2.28;;;;;;;24.54;45.98;101432.13;4948749;28;20054;-69
2022/09/02 10:46:29;;;;;;;6.38;2.30;;;;;;;24.94;47.16;101423.97;4967234;28;20050;-69
2022/09/02 10:49:46;;;;;;;3.92;2.05;;;;;;;25.55;46.35;101423.19;4968066;28;20042;-69
2022/09/02 10:52:49;;;;;;;2.63;1.75;;;;;;;25.48;46.42;101419.44;4905230;29;20931;-69
2022/09/02 10:55:26;;;;;;;3.78;2.33;;;;;;;25.37;46.15;101429.94;4905976;29;20062;-69
2022/09/02 10:58:02;;;;;;;9.10;2.15;;;;;;;25.28;47.29;101432.72;4903314;29;20044;-69
2022/09/02 11:00:31;;;;;;;5.85;2.28;;;;;;;25.21;46.09;101425.44;4888630;29;20840;-69
2022/09/02 11:03:11;;;;;;;2.58;2.13;;;;;;;25.28;46.15;101419.06;4907807;29;20063;-69
2022/09/02 11:05:46;;;;;;;9.38;2.40;;;;;;;25.68;45.62;101417.09;4905845;29;20070;-69
2022/09/02 11:08:18;;;;;;;4.45;2.13;;;;;;;25.30;45.56;101411.56;4897800;29;20098;-68
2022/09/02 11:11:00;;;;;;;3.53;2.28;;;;;;;25.10;46.01;101410.28;4908392;29;20938;-69
2022/09/02 11:14:01;;;;;;;4.32;2.60;;;;;;;25.38;45.54;101418.84;4908676;29;20047;-68
2022/09/02 11:16:41;;;;;;;7.22;2.58;;;;;;;25.58;45.42;101420.06;4904190;29;20040;-68
2022/09/02 11:19:21;;;;;;;5.38;2.67;;;;;;;25.48;45.86;101422.19;4907624;29;20059;-69
2022/09/02 11:21:48;;;;;;;3.25;2.85;;;;;;;25.23;45.79;101421.47;4908686;29;20079;-69
2022/09/02 11:24:23;;;;;;;3.95;2.17;;;;;;;25.69;45.27;101413.31;4907380;29;20915;-68
2022/09/02 11:27:30;;;;;;;2.65;2.30;;;;;;;25.16;44.30;101411.47;4915087;28;20094;-68
2022/09/02 11:30:04;;;;;;;2.53;2.13;;;;;;;25.41;43.57;101396.63;4945205;28;20842;-69
2022/09/02 11:32:55;;;;;;;2.60;2.10;;;;;;;24.97;44.03;101407.25;4951802;28;20045;-69
2022/09/02 11:35:26;;;;;;;3.38;1.98;;;;;;;25.23;44.79;101402.38;4967847;28;20335;-69
2022/09/02 11:38:00;;;;;;;5.43;2.35;;;;;;;25.21;44.20;101392.66;4968323;28;20046;-69